PWSweather.com
Personal Weather Stations
Station Observations
KAZTUCSO57
Countryside Manor, Tucson, AZ 85742

Countryside ManorTucson, AZ 85742

Lat: 32.3692, Lon: -111.066

Elevation: 2307

Station Type: Davis VP Pro+ 6163

http://frogville.us

Latest ConditionsUpdated 9:20:03 PM MST Sunday, Jun 24, 2018
Currently Today's Max Today's Min Today's Average
Temperature 90.8°F32.7°C 103.8°F39.9°C 77.1°F25.1°C 91.8°F33.2°C
Dew Point 47.9°F8.8°C 62.3°F16.8°C 40.1°F4.5°C 52.6°F11.4°C
Winds Calm Calm 5.8 mph -9.3 kmh - - 1.7 mph 2.7 kmh
Wind Gusts -- 11.5 mph18.5 kmh - -
Humidity 23% 54% 13% 29%
Pressure 29.66 in1004.4 mb 29.75 in1007.5 mb 29.63 in1003.4 mb -
Hour Temp Dew Point Humidity Winds Wind Gusts Pressure Precip Precip Rate Daily Precip Total
09:20 PM 90.8°F32.7°C 47.9°F8.8°C 23% Calm Calm -- 29.66 in1004.4 mb - 0.00 in0.0 mm 0.00 in0.0 mm
09:10 PM 91.5°F33.1°C 46.1°F7.8°C 21% Calm Calm -- 29.65 in1004.1 mb - 0.00 in0.0 mm 0.00 in0.0 mm
09:00 PM 92.0°F33.3°C 43.8°F6.6°C 19% Calm Calm -- 29.65 in1004.1 mb - 0.00 in0.0 mm 0.00 in0.0 mm
08:50 PM 92.9°F33.8°C 43.1°F6.2°C 18% Calm Calm 1.2 mph1.9 kmh 29.64 in1003.7 mb - 0.00 in0.0 mm 0.00 in0.0 mm
08:40 PM 93.4°F34.1°C 43.6°F6.4°C 18% Calm Calm -- 29.64 in1003.7 mb - 0.00 in0.0 mm 0.00 in0.0 mm
08:30 PM 93.9°F34.4°C 44.0°F6.7°C 18% Calm Calm -- 29.64 in1003.7 mb - 0.00 in0.0 mm 0.00 in0.0 mm
08:20 PM 94.4°F34.7°C 42.9°F6.1°C 17% Calm Calm -- 29.64 in1003.7 mb - 0.00 in0.0 mm 0.00 in0.0 mm
08:10 PM 94.9°F34.9°C 43.2°F6.2°C 17% 1.2 mph W1.9 kmh W 2.3 mph3.7 kmh 29.64 in1003.7 mb - 0.00 in0.0 mm 0.00 in0.0 mm
08:00 PM 95.4°F35.2°C 43.7°F6.5°C 17% Calm Calm 1.2 mph1.9 kmh 29.64 in1003.7 mb - 0.00 in0.0 mm 0.00 in0.0 mm
07:50 PM 95.8°F35.4°C 44.0°F6.7°C 17% 1.2 mph WNW1.9 kmh WNW 2.3 mph3.7 kmh 29.63 in1003.4 mb - 0.00 in0.0 mm 0.00 in0.0 mm
07:40 PM 96.4°F35.8°C 42.9°F6.1°C 16% 1.2 mph WNW1.9 kmh WNW 2.3 mph3.7 kmh 29.63 in1003.4 mb - 0.00 in0.0 mm 0.00 in0.0 mm
07:30 PM 96.8°F36.0°C 41.5°F5.3°C 15% 1.2 mph SW1.9 kmh SW 2.3 mph3.7 kmh 29.63 in1003.4 mb - 0.00 in0.0 mm 0.00 in0.0 mm
07:20 PM 97.3°F36.3°C 40.1°F4.5°C 14% Calm Calm 2.3 mph3.7 kmh 29.63 in1003.4 mb - 0.00 in0.0 mm 0.00 in0.0 mm
07:10 PM 97.7°F36.5°C 40.5°F4.7°C 14% 1.2 mph W1.9 kmh W 2.3 mph3.7 kmh 29.63 in1003.4 mb - 0.00 in0.0 mm 0.00 in0.0 mm
07:00 PM 98.1°F36.7°C 40.8°F4.9°C 14% 2.3 mph SW3.7 kmh SW 3.5 mph5.6 kmh 29.63 in1003.4 mb - 0.00 in0.0 mm 0.00 in0.0 mm
06:50 PM 98.4°F36.9°C 41.0°F5.0°C 14% 2.3 mph W3.7 kmh W 3.5 mph5.6 kmh 29.63 in1003.4 mb - 0.00 in0.0 mm 0.00 in0.0 mm
06:40 PM 98.7°F37.1°C 41.2°F5.1°C 14% 2.3 mph WSW3.7 kmh WSW 3.5 mph5.6 kmh 29.63 in1003.4 mb - 0.00 in0.0 mm 0.00 in0.0 mm
06:30 PM 98.9°F37.2°C 41.4°F5.2°C 14% 1.2 mph W1.9 kmh W 4.6 mph7.4 kmh 29.63 in1003.4 mb - 0.00 in0.0 mm 0.00 in0.0 mm
06:20 PM 99.1°F37.3°C 41.6°F5.3°C 14% 2.3 mph SW3.7 kmh SW 4.6 mph7.4 kmh 29.63 in1003.4 mb - 0.00 in0.0 mm 0.00 in0.0 mm
06:10 PM 99.4°F37.4°C 41.8°F5.4°C 14% 5.8 mph WNW9.3 kmh WNW 9.2 mph14.8 kmh 29.63 in1003.4 mb - 0.00 in0.0 mm 0.00 in0.0 mm
06:00 PM 99.8°F37.7°C 42.1°F5.6°C 14% 2.3 mph SW3.7 kmh SW 3.5 mph5.6 kmh 29.63 in1003.4 mb - 0.00 in0.0 mm 0.00 in0.0 mm
05:50 PM 100.2°F37.9°C 40.5°F4.7°C 13% 4.6 mph WSW7.4 kmh WSW 6.9 mph11.1 kmh 29.63 in1003.4 mb - 0.00 in0.0 mm 0.00 in0.0 mm
05:40 PM 100.5°F38.1°C 42.7°F5.9°C 14% 3.5 mph W5.6 kmh W 3.5 mph5.6 kmh 29.63 in1003.4 mb - 0.00 in0.0 mm 0.00 in0.0 mm
05:30 PM 101.0°F38.3°C 43.0°F6.1°C 14% 3.5 mph SW5.6 kmh SW 4.6 mph7.4 kmh 29.63 in1003.4 mb - 0.00 in0.0 mm 0.00 in0.0 mm
05:20 PM 101.0°F38.3°C 43.0°F6.1°C 14% 3.5 mph WSW5.6 kmh WSW 6.9 mph11.1 kmh 29.64 in1003.7 mb - 0.00 in0.0 mm 0.00 in0.0 mm
05:10 PM 101.4°F38.6°C 43.4°F6.3°C 14% 2.3 mph WNW3.7 kmh WNW 3.5 mph5.6 kmh 29.64 in1003.7 mb - 0.00 in0.0 mm 0.00 in0.0 mm
05:00 PM 101.8°F38.8°C 43.7°F6.5°C 14% 5.8 mph W9.3 kmh W 6.9 mph11.1 kmh 29.64 in1003.7 mb - 0.00 in0.0 mm 0.00 in0.0 mm
04:50 PM 101.9°F38.8°C 45.6°F7.6°C 15% 3.5 mph WSW5.6 kmh WSW 5.8 mph9.3 kmh 29.64 in1003.7 mb - 0.00 in0.0 mm 0.00 in0.0 mm
04:40 PM 102.0°F38.9°C 47.4°F8.6°C 16% 3.5 mph SW5.6 kmh SW 5.8 mph9.3 kmh 29.64 in1003.7 mb - 0.00 in0.0 mm 0.00 in0.0 mm
04:30 PM 102.0°F38.9°C 47.4°F8.6°C 16% 3.5 mph W5.6 kmh W 4.6 mph7.4 kmh 29.65 in1004.1 mb - 0.00 in0.0 mm 0.00 in0.0 mm
04:20 PM 102.7°F39.3°C 47.9°F8.8°C 16% 3.5 mph SW5.6 kmh SW 8.1 mph13.0 kmh 29.65 in1004.1 mb - 0.00 in0.0 mm 0.00 in0.0 mm
04:10 PM 103.2°F39.6°C 48.3°F9.1°C 16% 4.6 mph SSW7.4 kmh SSW 6.9 mph11.1 kmh 29.66 in1004.4 mb - 0.00 in0.0 mm 0.00 in0.0 mm
04:00 PM 103.1°F39.5°C 44.7°F7.1°C 14% 5.8 mph WSW9.3 kmh WSW 8.1 mph13.0 kmh 29.66 in1004.4 mb - 0.00 in0.0 mm 0.00 in0.0 mm
03:50 PM 103.3°F39.6°C 46.7°F8.2°C 15% 4.6 mph WSW7.4 kmh WSW 6.9 mph11.1 kmh 29.66 in1004.4 mb - 0.00 in0.0 mm 0.00 in0.0 mm
03:40 PM 103.2°F39.6°C 46.6°F8.1°C 15% 3.5 mph SW5.6 kmh SW 5.8 mph9.3 kmh 29.67 in1004.7 mb - 0.00 in0.0 mm 0.00 in0.0 mm
03:30 PM 103.1°F39.5°C 44.7°F7.1°C 14% 3.5 mph WSW5.6 kmh WSW 5.8 mph9.3 kmh 29.67 in1004.7 mb - 0.00 in0.0 mm 0.00 in0.0 mm
03:20 PM 103.7°F39.8°C 45.2°F7.3°C 14% 4.6 mph WSW7.4 kmh WSW 4.6 mph7.4 kmh 29.67 in1004.7 mb - 0.00 in0.0 mm 0.00 in0.0 mm
03:10 PM 103.8°F39.9°C 47.1°F8.4°C 15% 3.5 mph SW5.6 kmh SW 6.9 mph11.1 kmh 29.67 in1004.7 mb - 0.00 in0.0 mm 0.00 in0.0 mm
03:00 PM 103.8°F39.9°C 50.4°F10.2°C 17% 1.2 mph S1.9 kmh S 3.5 mph5.6 kmh 29.68 in1005.1 mb - 0.00 in0.0 mm 0.00 in0.0 mm
02:50 PM 103.7°F39.8°C 51.9°F11.1°C 18% 2.3 mph WSW3.7 kmh WSW 3.5 mph5.6 kmh 29.68 in1005.1 mb - 0.00 in0.0 mm 0.00 in0.0 mm
02:40 PM 103.1°F39.5°C 51.4°F10.8°C 18% 3.5 mph WNW5.6 kmh WNW 6.9 mph11.1 kmh 29.68 in1005.1 mb - 0.00 in0.0 mm 0.00 in0.0 mm
02:30 PM 102.8°F39.3°C 54.0°F12.2°C 20% 3.5 mph N5.6 kmh N 3.5 mph5.6 kmh 29.69 in1005.4 mb - 0.00 in0.0 mm 0.00 in0.0 mm
02:20 PM 103.2°F39.6°C 52.9°F11.6°C 19% 4.6 mph W7.4 kmh W 5.8 mph9.3 kmh 29.69 in1005.4 mb - 0.00 in0.0 mm 0.00 in0.0 mm
02:10 PM 102.4°F39.1°C 53.7°F12.1°C 20% 3.5 mph W5.6 kmh W 8.1 mph13.0 kmh 29.69 in1005.4 mb - 0.00 in0.0 mm 0.00 in0.0 mm
02:00 PM 101.4°F38.6°C 54.2°F12.3°C 21% 1.2 mph W1.9 kmh W 3.5 mph5.6 kmh 29.69 in1005.4 mb - 0.00 in0.0 mm 0.00 in0.0 mm
01:50 PM 101.3°F38.5°C 52.8°F11.6°C 20% 2.3 mph SW3.7 kmh SW 3.5 mph5.6 kmh 29.70 in1005.8 mb - 0.00 in0.0 mm 0.00 in0.0 mm
01:40 PM 100.6°F38.1°C 53.6°F12.0°C 21% 1.2 mph SW1.9 kmh SW 3.5 mph5.6 kmh 29.70 in1005.8 mb - 0.00 in0.0 mm 0.00 in0.0 mm
01:30 PM 101.0°F38.3°C 53.9°F12.2°C 21% 3.5 mph S5.6 kmh S 6.9 mph11.1 kmh 29.70 in1005.8 mb - 0.00 in0.0 mm 0.00 in0.0 mm
01:20 PM 102.0°F38.9°C 52.0°F11.1°C 19% 1.2 mph SSW1.9 kmh SSW 3.5 mph5.6 kmh 29.70 in1005.8 mb - 0.00 in0.0 mm 0.00 in0.0 mm
01:10 PM 101.6°F38.7°C 54.4°F12.4°C 21% 3.5 mph WSW5.6 kmh WSW 4.6 mph7.4 kmh 29.71 in1006.1 mb - 0.00 in0.0 mm 0.00 in0.0 mm
01:00 PM 102.0°F38.9°C 56.0°F13.3°C 22% 2.3 mph WSW3.7 kmh WSW 5.8 mph9.3 kmh 29.71 in1006.1 mb - 0.00 in0.0 mm 0.00 in0.0 mm
12:50 PM 101.1°F38.4°C 54.0°F12.2°C 21% 1.2 mph WNW1.9 kmh WNW 3.5 mph5.6 kmh 29.71 in1006.1 mb - 0.00 in0.0 mm 0.00 in0.0 mm
12:40 PM 100.8°F38.2°C 53.7°F12.1°C 21% 4.6 mph SW7.4 kmh SW 6.9 mph11.1 kmh 29.72 in1006.4 mb - 0.00 in0.0 mm 0.00 in0.0 mm
12:30 PM 100.7°F38.2°C 54.9°F12.7°C 22% 1.2 mph SSW1.9 kmh SSW 2.3 mph3.7 kmh 29.72 in1006.4 mb - 0.00 in0.0 mm 0.00 in0.0 mm
12:20 PM 100.9°F38.3°C 55.1°F12.8°C 22% 3.5 mph SSW5.6 kmh SSW 3.5 mph5.6 kmh 29.72 in1006.4 mb - 0.00 in0.0 mm 0.00 in0.0 mm
12:10 PM 101.0°F38.3°C 55.2°F12.9°C 22% 2.3 mph WSW3.7 kmh WSW 3.5 mph5.6 kmh 29.72 in1006.4 mb - 0.00 in0.0 mm 0.00 in0.0 mm
12:00 PM 100.1°F37.8°C 55.6°F13.1°C 23% 3.5 mph WSW5.6 kmh WSW 8.1 mph13.0 kmh 29.73 in1006.8 mb - 0.00 in0.0 mm 0.00 in0.0 mm
11:50 AM 99.4°F37.4°C 57.3°F14.1°C 25% 2.3 mph N3.7 kmh N 2.3 mph3.7 kmh 29.73 in1006.8 mb - 0.00 in0.0 mm 0.00 in0.0 mm
11:40 AM 98.9°F37.2°C 55.8°F13.2°C 24% 4.6 mph SSW7.4 kmh SSW 8.1 mph13.0 kmh 29.73 in1006.8 mb - 0.00 in0.0 mm 0.00 in0.0 mm
11:30 AM 97.7°F36.5°C 57.0°F13.9°C 26% 2.3 mph WSW3.7 kmh WSW 3.5 mph5.6 kmh 29.73 in1006.8 mb - 0.00 in0.0 mm 0.00 in0.0 mm
11:20 AM 97.4°F36.3°C 55.7°F13.2°C 25% 2.3 mph SW3.7 kmh SW 3.5 mph5.6 kmh 29.74 in1007.1 mb - 0.00 in0.0 mm 0.00 in0.0 mm
11:10 AM 97.3°F36.3°C 54.4°F12.4°C 24% 4.6 mph SW7.4 kmh SW 11.5 mph18.5 kmh 29.73 in1006.8 mb - 0.00 in0.0 mm 0.00 in0.0 mm
11:00 AM 95.0°F35.0°C 56.8°F13.8°C 28% 3.5 mph WSW5.6 kmh WSW 4.6 mph7.4 kmh 29.74 in1007.1 mb - 0.00 in0.0 mm 0.00 in0.0 mm
10:50 AM 94.5°F34.7°C 59.2°F15.1°C 31% 3.5 mph SW5.6 kmh SW 5.8 mph9.3 kmh 29.74 in1007.1 mb - 0.00 in0.0 mm 0.00 in0.0 mm
10:40 AM 93.8°F34.3°C 60.3°F15.7°C 33% 1.2 mph SSW1.9 kmh SSW 5.8 mph9.3 kmh 29.75 in1007.5 mb - 0.00 in0.0 mm 0.00 in0.0 mm
10:30 AM 93.5°F34.2°C 60.0°F15.6°C 33% 1.2 mph SW1.9 kmh SW 2.3 mph3.7 kmh 29.75 in1007.5 mb - 0.00 in0.0 mm 0.00 in0.0 mm
10:20 AM 93.2°F34.0°C 60.6°F15.9°C 34% 3.5 mph S5.6 kmh S 5.8 mph9.3 kmh 29.75 in1007.5 mb - 0.00 in0.0 mm 0.00 in0.0 mm
10:10 AM 92.5°F33.6°C 60.1°F15.6°C 34% 2.3 mph SSW3.7 kmh SSW 4.6 mph7.4 kmh 29.74 in1007.1 mb - 0.00 in0.0 mm 0.00 in0.0 mm
10:00 AM 92.5°F33.6°C 60.9°F16.1°C 35% 1.2 mph NE1.9 kmh NE 1.2 mph1.9 kmh 29.74 in1007.1 mb - 0.00 in0.0 mm 0.00 in0.0 mm
09:50 AM 92.7°F33.7°C 60.2°F15.7°C 34% 2.3 mph SE3.7 kmh SE 3.5 mph5.6 kmh 29.75 in1007.5 mb - 0.00 in0.0 mm 0.00 in0.0 mm
09:40 AM 92.6°F33.7°C 61.0°F16.1°C 35% 2.3 mph E3.7 kmh E 3.5 mph5.6 kmh 29.74 in1007.1 mb - 0.00 in0.0 mm 0.00 in0.0 mm
09:30 AM 92.3°F33.5°C 60.7°F15.9°C 35% 2.3 mph SW3.7 kmh SW 4.6 mph7.4 kmh 29.74 in1007.1 mb - 0.00 in0.0 mm 0.00 in0.0 mm
09:20 AM 92.0°F33.3°C 60.5°F15.8°C 35% 2.3 mph E3.7 kmh E 3.5 mph5.6 kmh 29.74 in1007.1 mb - 0.00 in0.0 mm 0.00 in0.0 mm
09:10 AM 91.4°F33.0°C 60.7°F15.9°C 36% 1.2 mph NW1.9 kmh NW 3.5 mph5.6 kmh 29.75 in1007.5 mb - 0.00 in0.0 mm 0.00 in0.0 mm
09:00 AM 91.3°F32.9°C 60.6°F15.9°C 36% 1.2 mph S1.9 kmh S 2.3 mph3.7 kmh 29.74 in1007.1 mb - 0.00 in0.0 mm 0.00 in0.0 mm
08:50 AM 91.3°F32.9°C 60.6°F15.9°C 36% Calm Calm 1.2 mph1.9 kmh 29.74 in1007.1 mb - 0.00 in0.0 mm 0.00 in0.0 mm
08:40 AM 90.8°F32.7°C 60.9°F16.1°C 37% 1.2 mph NE1.9 kmh NE 3.5 mph5.6 kmh 29.74 in1007.1 mb - 0.00 in0.0 mm 0.00 in0.0 mm
08:30 AM 90.4°F32.4°C 61.3°F16.3°C 38% 1.2 mph ENE1.9 kmh ENE 3.5 mph5.6 kmh 29.74 in1007.1 mb - 0.00 in0.0 mm 0.00 in0.0 mm
08:20 AM 89.9°F32.2°C 60.9°F16.1°C 38% 3.5 mph NNE5.6 kmh NNE 3.5 mph5.6 kmh 29.74 in1007.1 mb - 0.00 in0.0 mm 0.00 in0.0 mm
08:10 AM 89.2°F31.8°C 61.0°F16.1°C 39% 1.2 mph SE1.9 kmh SE 3.5 mph5.6 kmh 29.74 in1007.1 mb - 0.00 in0.0 mm 0.00 in0.0 mm
08:00 AM 88.5°F31.4°C 61.1°F16.2°C 40% Calm Calm 2.3 mph3.7 kmh 29.74 in1007.1 mb - 0.00 in0.0 mm 0.00 in0.0 mm
07:50 AM 88.0°F31.1°C 61.3°F16.3°C 41% 1.2 mph SE1.9 kmh SE 4.6 mph7.4 kmh 29.73 in1006.8 mb - 0.00 in0.0 mm 0.00 in0.0 mm
07:40 AM 87.3°F30.7°C 61.4°F16.3°C 42% 1.2 mph SE1.9 kmh SE 4.6 mph7.4 kmh 29.73 in1006.8 mb - 0.00 in0.0 mm 0.00 in0.0 mm
07:30 AM 86.8°F30.4°C 62.3°F16.8°C 44% 2.3 mph ESE3.7 kmh ESE 3.5 mph5.6 kmh 29.73 in1006.8 mb - 0.00 in0.0 mm 0.00 in0.0 mm
07:20 AM 86.3°F30.2°C 61.2°F16.2°C 43% 3.5 mph E5.6 kmh E 5.8 mph9.3 kmh 29.73 in1006.8 mb - 0.00 in0.0 mm 0.00 in0.0 mm
07:10 AM 85.6°F29.8°C 61.2°F16.2°C 44% 2.3 mph S3.7 kmh S 2.3 mph3.7 kmh 29.73 in1006.8 mb - 0.00 in0.0 mm 0.00 in0.0 mm
07:00 AM 84.7°F29.3°C 61.7°F16.5°C 46% 1.2 mph SE1.9 kmh SE 3.5 mph5.6 kmh 29.72 in1006.4 mb - 0.00 in0.0 mm 0.00 in0.0 mm
06:50 AM 83.5°F28.6°C 61.2°F16.2°C 47% 1.2 mph E1.9 kmh E 2.3 mph3.7 kmh 29.72 in1006.4 mb - 0.00 in0.0 mm 0.00 in0.0 mm
06:40 AM 81.4°F27.4°C 61.5°F16.4°C 51% Calm Calm 3.5 mph5.6 kmh 29.72 in1006.4 mb - 0.00 in0.0 mm 0.00 in0.0 mm
06:30 AM 79.4°F26.3°C 60.2°F15.7°C 52% Calm Calm -- 29.71 in1006.1 mb - 0.00 in0.0 mm 0.00 in0.0 mm
06:20 AM 78.3°F25.7°C 59.8°F15.4°C 53% Calm Calm -- 29.71 in1006.1 mb - 0.00 in0.0 mm 0.00 in0.0 mm
06:10 AM 77.6°F25.3°C 59.6°F15.3°C 54% Calm Calm -- 29.71 in1006.1 mb - 0.00 in0.0 mm 0.00 in0.0 mm
06:00 AM 77.2°F25.1°C 59.2°F15.1°C 54% Calm Calm -- 29.70 in1005.8 mb - 0.00 in0.0 mm 0.00 in0.0 mm
05:50 AM 77.1°F25.1°C 58.1°F14.5°C 52% Calm Calm -- 29.70 in1005.8 mb - 0.00 in0.0 mm 0.00 in0.0 mm
05:40 AM 77.1°F25.1°C 57.0°F13.9°C 50% Calm Calm -- 29.70 in1005.8 mb - 0.00 in0.0 mm 0.00 in0.0 mm
05:30 AM 77.2°F25.1°C 56.6°F13.7°C 49% Calm Calm -- 29.70 in1005.8 mb - 0.00 in0.0 mm 0.00 in0.0 mm
05:20 AM 77.4°F25.2°C 56.7°F13.7°C 49% Calm Calm -- 29.70 in1005.8 mb - 0.00 in0.0 mm 0.00 in0.0 mm
05:10 AM 77.5°F25.3°C 56.3°F13.5°C 48% Calm Calm -- 29.69 in1005.4 mb - 0.00 in0.0 mm 0.00 in0.0 mm
05:00 AM 77.6°F25.3°C 56.4°F13.6°C 48% Calm Calm -- 29.69 in1005.4 mb - 0.00 in0.0 mm 0.00 in0.0 mm
04:50 AM 77.5°F25.3°C 55.7°F13.2°C 47% Calm Calm -- 29.69 in1005.4 mb - 0.00 in0.0 mm 0.00 in0.0 mm
04:40 AM 77.6°F25.3°C 55.2°F12.9°C 46% 1.2 mph E1.9 kmh E 2.3 mph3.7 kmh 29.68 in1005.1 mb - 0.00 in0.0 mm 0.00 in0.0 mm
04:30 AM 77.9°F25.5°C 55.5°F13.1°C 46% Calm Calm -- 29.67 in1004.7 mb - 0.00 in0.0 mm 0.00 in0.0 mm
04:20 AM 78.1°F25.6°C 55.0°F12.8°C 45% Calm Calm -- 29.66 in1004.4 mb - 0.00 in0.0 mm 0.00 in0.0 mm
04:10 AM 78.2°F25.7°C 55.1°F12.8°C 45% Calm Calm -- 29.66 in1004.4 mb - 0.00 in0.0 mm 0.00 in0.0 mm
04:00 AM 78.4°F25.8°C 54.7°F12.6°C 44% Calm Calm -- 29.66 in1004.4 mb - 0.00 in0.0 mm 0.00 in0.0 mm
03:50 AM 78.7°F25.9°C 54.3°F12.4°C 43% Calm Calm -- 29.66 in1004.4 mb - 0.00 in0.0 mm 0.00 in0.0 mm
03:40 AM 79.0°F26.1°C 53.9°F12.2°C 42% Calm Calm -- 29.65 in1004.1 mb - 0.00 in0.0 mm 0.00 in0.0 mm
03:30 AM 79.3°F26.3°C 54.2°F12.3°C 42% Calm Calm -- 29.65 in1004.1 mb - 0.00 in0.0 mm 0.00 in0.0 mm
03:20 AM 79.3°F26.3°C 54.2°F12.3°C 42% Calm Calm -- 29.65 in1004.1 mb - 0.00 in0.0 mm 0.00 in0.0 mm
03:10 AM 79.5°F26.4°C 54.4°F12.4°C 42% Calm Calm 1.2 mph1.9 kmh 29.65 in1004.1 mb - 0.00 in0.0 mm 0.00 in0.0 mm
03:00 AM 79.8°F26.6°C 54.0°F12.2°C 41% Calm Calm -- 29.65 in1004.1 mb - 0.00 in0.0 mm 0.00 in0.0 mm
02:50 AM 80.3°F26.8°C 54.5°F12.5°C 41% Calm Calm -- 29.65 in1004.1 mb - 0.00 in0.0 mm 0.00 in0.0 mm
02:40 AM 80.8°F27.1°C 54.2°F12.3°C 40% Calm Calm 1.2 mph1.9 kmh 29.65 in1004.1 mb - 0.00 in0.0 mm 0.00 in0.0 mm
02:30 AM 81.3°F27.4°C 53.3°F11.8°C 38% Calm Calm -- 29.65 in1004.1 mb - 0.00 in0.0 mm 0.00 in0.0 mm
02:20 AM 82.0°F27.8°C 53.9°F12.2°C 38% Calm Calm -- 29.65 in1004.1 mb - 0.00 in0.0 mm 0.00 in0.0 mm
02:10 AM 82.4°F28.0°C 52.8°F11.6°C 36% Calm Calm -- 29.65 in1004.1 mb - 0.00 in0.0 mm 0.00 in0.0 mm
02:00 AM 82.5°F28.1°C 52.1°F11.2°C 35% Calm Calm -- 29.65 in1004.1 mb - 0.00 in0.0 mm 0.00 in0.0 mm
01:50 AM 82.7°F28.2°C 52.3°F11.3°C 35% 1.2 mph NW1.9 kmh NW 2.3 mph3.7 kmh 29.65 in1004.1 mb - 0.00 in0.0 mm 0.00 in0.0 mm
01:40 AM 83.0°F28.3°C 52.5°F11.4°C 35% 1.2 mph WNW1.9 kmh WNW 3.5 mph5.6 kmh 29.65 in1004.1 mb - 0.00 in0.0 mm 0.00 in0.0 mm
01:30 AM 83.6°F28.7°C 53.1°F11.7°C 35% 1.2 mph WNW1.9 kmh WNW 2.3 mph3.7 kmh 29.65 in1004.1 mb - 0.00 in0.0 mm 0.00 in0.0 mm
01:20 AM 83.9°F28.8°C 53.3°F11.8°C 35% Calm Calm 1.2 mph1.9 kmh 29.65 in1004.1 mb - 0.00 in0.0 mm 0.00 in0.0 mm
01:10 AM 84.5°F29.2°C 53.8°F12.1°C 35% Calm Calm 2.3 mph3.7 kmh 29.66 in1004.4 mb - 0.00 in0.0 mm 0.00 in0.0 mm
01:00 AM 85.1°F29.5°C 52.8°F11.6°C 33% Calm Calm -- 29.66 in1004.4 mb - 0.00 in0.0 mm 0.00 in0.0 mm
12:50 AM 85.5°F29.7°C 52.3°F11.3°C 32% Calm Calm -- 29.65 in1004.1 mb - 0.00 in0.0 mm 0.00 in0.0 mm
12:40 AM 85.9°F29.9°C 51.8°F11.0°C 31% Calm Calm 1.2 mph1.9 kmh 29.65 in1004.1 mb - 0.00 in0.0 mm 0.00 in0.0 mm
12:30 AM 86.2°F30.1°C 52.0°F11.1°C 31% Calm Calm 1.2 mph1.9 kmh 29.65 in1004.1 mb - 0.00 in0.0 mm 0.00 in0.0 mm
12:20 AM 86.6°F30.3°C 52.3°F11.3°C 31% 1.2 mph WNW1.9 kmh WNW 2.3 mph3.7 kmh 29.65 in1004.1 mb - 0.00 in0.0 mm 0.00 in0.0 mm
12:10 AM 87.0°F30.6°C 51.8°F11.0°C 30% Calm Calm 2.3 mph3.7 kmh 29.65 in1004.1 mb - 0.00 in0.0 mm 0.00 in0.0 mm
12:00 AM 87.2°F30.7°C 52.0°F11.1°C 30% 1.2 mph W1.9 kmh W 3.5 mph5.6 kmh 29.65 in1004.1 mb - 0.00 in0.0 mm 0.00 in0.0 mm